Historique des mesures à Cassis (13260), France
Quotidien Résumé Juillet 4, 2017 Unités:  Métrique    US   Métrique/US
« Précédent (Jour)
Suivant (Jour) »
Quotidien Hebdomadaire Mensuel Annuel Période au choix
  Maximum: Minimum: Moyenne:
Température: TemperatureC °C 19.3 °C 23.2 °C
Point de rosée: DewpointC °C 11.1 °C 14.5 °C
Humidité: Humidity % 42 % 55 %
Vitesse du vent: 0 km/h 0 km/h 4.2 km/h
Rafales: 0 km/h - -
Vent:- - SW
Pression: PressurehPa hPa 1013.1 hPa -
Précipitations: 0.0 mm    
Historical Graphs
 
 
Mesures pour : Juillet 4, 2017
Heure Temperature Point de rosée Pression Vent Vitesse du vent Rafales Humidité Pluie (par heure) Conditions
TemperatureC °C DewpointC °C PressurehPa hPa Calm     Humidity % HourlyPrecipMM mm SoftwareType W/m2
00:10 22.3 °C 13.1 °C 1014.1 hPa Calm   2.3 km/h 56 % 0.0 mm open2300-1.11 W/m2
01:10 21.9 °C 12.1 °C 1014.1 hPa Calm   2.3 km/h 54 % 0.0 mm open2300-1.11 W/m2
02:10 21.5 °C 11.8 °C 1013.8 hPa North 1.8 km/h 2.9 km/h 54 % 0.0 mm open2300-1.11 W/m2
03:11 21.3 °C 11.9 °C 1013.4 hPa West 6.4 km/h 6.4 km/h 55 % 0.0 mm open2300-1.11 W/m2
04:10 21.4 °C 11.9 °C 1013.1 hPa Calm     55 % 0.0 mm open2300-1.11 W/m2
05:11 20.3 °C 11.5 °C 1013.4 hPa Calm     57 % 0.0 mm open2300-1.11 W/m2
06:10 19.3 °C 11.1 °C 1013.4 hPa Calm   2.3 km/h 59 % 0.0 mm open2300-1.11 W/m2
07:10 19.5 °C 11.3 °C 1013.8 hPa Calm     59 % 0.0 mm open2300-1.11 W/m2
08:11 22.7 °C 13.1 °C 1014.1 hPa Calm     55 % 0.0 mm open2300-1.11 W/m2
09:11 23.1 °C 13.5 °C 1014.4 hPa SSE 3.4 km/h 3.4 km/h 55 % 0.0 mm open2300-1.11 W/m2
10:10 24.3 °C 14.9 °C 1014.8 hPa SSE 17.4 km/h 17.4 km/h 56 % 0.0 mm open2300-1.11 W/m2
11:10 28.6 °C 16.8 °C 1015.1 hPa NW 5.1 km/h 5.1 km/h 49 % 0.0 mm open2300-1.11 W/m2
12:10 29.8 °C 16.6 °C 1015.1 hPa WNW 6.4 km/h 15 km/h 45 % 0.0 mm open2300-1.11 W/m2
13:11 30.9 °C 16.5 °C 1015.1 hPa WNW 6.4 km/h 7.6 km/h 42 % 0.0 mm open2300-1.11 W/m2
14:10 29.3 °C 17.2 °C 1014.8 hPa WNW 6.4 km/h 9.8 km/h 48 % 0.0 mm open2300-1.11 W/m2
15:10 27.4 °C 17.5 °C 1015.1 hPa WSW 15.6 km/h 15.6 km/h 55 % 0.0 mm open2300-1.11 W/m2
16:10 26.6 °C 17.9 °C 1015.1 hPa SSE 2.9 km/h 20.3 km/h 59 % 0.0 mm open2300-1.11 W/m2
17:10 26.5 °C 18.4 °C 1015.1 hPa SW 8 km/h 12.2 km/h 61 % 0.0 mm open2300-1.11 W/m2
18:11 26.1 °C 18.5 °C 1014.8 hPa SW 10.9 km/h 13.2 km/h 63 % 0.0 mm open2300-1.11 W/m2
19:10 25.1 °C 18.6 °C 1014.4 hPa West 5.6 km/h 5.6 km/h 67 % 0.0 mm open2300-1.11 W/m2
20:10 24.8 °C 18.2 °C 1014.4 hPa SW 5.1 km/h 5.1 km/h 67 % 0.0 mm open2300-1.11 W/m2
21:10 23.8 °C 18.0 °C 1014.8 hPa Calm     70 % 0.0 mm open2300-1.11 W/m2
22:10 22.4 °C 16.4 °C 1015.1 hPa Calm     69 % 0.0 mm open2300-1.11 W/m2
23:11 21.6 °C 15.9 °C 1015.5 hPa NNW 4.2 km/h 4.2 km/h 70 % 0.0 mm open2300-1.11 W/m2
Observations météo à CASSIS
WU-History script by Weather Underground - 1 mb